createdAt,value
2018-11-05T00:00:32.645Z,10.10
2018-11-05T00:03:01.178Z,10.10
2018-11-05T00:05:29.605Z,10.10
2018-11-05T00:07:58.057Z,10.10
2018-11-05T00:10:26.498Z,10.10
2018-11-05T00:12:54.941Z,10.10
2018-11-05T00:15:23.392Z,10.00
2018-11-05T00:17:52.047Z,10.00
2018-11-05T00:20:20.477Z,10.00
2018-11-05T00:22:48.973Z,10.00
2018-11-05T00:25:17.490Z,10.10
2018-11-05T00:27:45.954Z,10.10
2018-11-05T00:30:15.023Z,10.10
2018-11-05T00:32:44.110Z,10.10
2018-11-05T00:35:13.029Z,10.10
2018-11-05T00:37:41.558Z,10.10
2018-11-05T00:40:12.721Z,10.10
2018-11-05T00:42:42.085Z,10.10
2018-11-05T00:45:11.541Z,10.20
2018-11-05T00:47:40.373Z,10.20
2018-11-05T00:50:10.663Z,10.10
2018-11-05T00:52:39.228Z,10.10
2018-11-05T00:55:08.448Z,10.10
2018-11-05T00:57:37.023Z,10.10
2018-11-05T01:00:11.324Z,10.10
2018-11-05T01:02:40.345Z,10.10
2018-11-05T01:05:10.349Z,10.00
2018-11-05T01:07:38.905Z,10.10
2018-11-05T01:10:08.641Z,10.00
2018-11-05T01:12:37.459Z,10.00
2018-11-05T01:15:08.397Z,10.00
2018-11-05T01:17:37.015Z,10.10
2018-11-05T01:20:06.664Z,10.10
2018-11-05T01:22:35.157Z,10.10
2018-11-05T01:25:03.642Z,10.10
2018-11-05T01:27:32.159Z,10.00
2018-11-05T01:30:00.772Z,10.10
2018-11-05T01:32:29.381Z,10.10
2018-11-05T01:34:57.910Z,10.10
2018-11-05T01:37:27.502Z,10.10
2018-11-05T01:39:56.034Z,10.10
2018-11-05T01:42:25.330Z,10.10
2018-11-05T01:44:53.909Z,10.10
2018-11-05T01:47:22.411Z,10.10
2018-11-05T01:49:50.857Z,10.20
2018-11-05T01:52:19.334Z,10.10
2018-11-05T01:54:47.779Z,10.10
2018-11-05T01:57:16.405Z,10.20
2018-11-05T01:59:50.671Z,10.10
2018-11-05T02:02:19.135Z,10.10
2018-11-05T02:04:47.593Z,10.10
2018-11-05T02:07:16.064Z,10.20
2018-11-05T02:09:44.515Z,10.20
2018-11-05T02:12:13.309Z,10.20
2018-11-05T02:14:41.954Z,10.20
2018-11-05T02:17:11.066Z,10.20
2018-11-05T02:19:40.687Z,10.10
2018-11-05T02:22:09.177Z,10.20
2018-11-05T02:24:37.759Z,10.20
2018-11-05T02:27:06.447Z,10.30
2018-11-05T02:29:34.847Z,10.30
2018-11-05T02:32:03.345Z,10.30
2018-11-05T02:34:31.823Z,10.30
2018-11-05T02:37:00.304Z,10.30
2018-11-05T02:39:28.948Z,10.30
2018-11-05T02:41:57.398Z,10.20
2018-11-05T02:44:25.907Z,10.30
2018-11-05T02:46:54.504Z,10.30
2018-11-05T02:49:23.209Z,10.30
2018-11-05T02:51:51.755Z,10.30
2018-11-05T02:54:20.213Z,10.20
2018-11-05T02:56:48.654Z,10.10
2018-11-05T02:59:17.086Z,10.10
2018-11-05T03:01:45.522Z,10.10
2018-11-05T03:04:14.002Z,10.00
2018-11-05T03:06:42.565Z,10.00
2018-11-05T03:09:12.253Z,9.90
2018-11-05T03:11:41.454Z,9.90
2018-11-05T03:14:10.174Z,9.80
2018-11-05T03:16:38.930Z,9.70
2018-11-05T03:19:07.474Z,9.70
2018-11-05T03:21:36.082Z,9.70
2018-11-05T03:24:04.698Z,9.50
2018-11-05T03:26:33.278Z,9.50
2018-11-05T03:29:01.807Z,9.40
2018-11-05T03:31:30.255Z,9.40
2018-11-05T03:33:58.738Z,9.50
2018-11-05T03:36:27.241Z,9.50
2018-11-05T03:38:55.682Z,9.40
2018-11-05T03:41:24.133Z,9.40
2018-11-05T03:43:54.079Z,9.40
2018-11-05T03:46:23.043Z,9.40
2018-11-05T03:48:51.525Z,9.30
2018-11-05T03:51:20.026Z,9.20
2018-11-05T03:53:48.575Z,9.20
2018-11-05T03:56:17.121Z,9.10
2018-11-05T03:58:45.663Z,9.10
2018-11-05T04:01:14.391Z,9.10
2018-11-05T04:03:42.845Z,9.10
2018-11-05T04:06:11.305Z,9.00
2018-11-05T04:08:39.967Z,9.00
2018-11-05T04:11:08.399Z,8.90
2018-11-05T04:13:37.155Z,8.90
2018-11-05T04:16:05.966Z,8.90
2018-11-05T04:18:34.540Z,8.90
2018-11-05T04:21:03.127Z,8.90
2018-11-05T04:23:31.563Z,8.90
2018-11-05T04:26:00.011Z,8.80
2018-11-05T04:28:28.789Z,8.80
2018-11-05T04:30:57.975Z,8.80
2018-11-05T04:33:26.427Z,8.80
2018-11-05T04:35:54.870Z,8.70
2018-11-05T04:38:23.305Z,8.60
2018-11-05T04:40:51.749Z,8.60
2018-11-05T04:43:20.236Z,8.50
2018-11-05T04:45:48.741Z,8.50
2018-11-05T04:48:17.406Z,8.40
2018-11-05T04:50:45.985Z,8.40
2018-11-05T04:53:14.602Z,8.40
2018-11-05T04:55:43.272Z,8.40
2018-11-05T04:58:12.324Z,8.30
2018-11-05T05:00:41.493Z,8.30
2018-11-05T05:03:10.909Z,8.30
2018-11-05T05:05:40.010Z,8.10
2018-11-05T05:08:08.463Z,8.10
2018-11-05T05:10:36.912Z,8.00
2018-11-05T05:13:05.599Z,8.10
2018-11-05T05:15:34.144Z,8.10
2018-11-05T05:18:02.725Z,8.00
2018-11-05T05:20:31.148Z,8.00
2018-11-05T05:22:59.758Z,7.90
2018-11-05T05:25:28.109Z,7.90
2018-11-05T05:27:56.552Z,7.90
2018-11-05T05:30:25.134Z,7.90
2018-11-05T05:32:53.695Z,7.90
2018-11-05T05:35:22.341Z,7.80
2018-11-05T05:37:50.943Z,7.80
2018-11-05T05:40:19.565Z,7.70
2018-11-05T05:42:48.020Z,7.70
2018-11-05T05:45:16.559Z,7.80
2018-11-05T05:47:45.250Z,7.80
2018-11-05T05:50:17.719Z,7.80
2018-11-05T05:52:51.850Z,7.80
2018-11-05T05:55:21.121Z,7.80
2018-11-05T05:57:51.856Z,7.90
2018-11-05T06:00:20.530Z,7.80
2018-11-05T06:02:50.362Z,7.90
2018-11-05T06:05:19.799Z,7.90
2018-11-05T06:07:49.848Z,7.80
2018-11-05T06:10:19.447Z,8.00
2018-11-05T06:12:48.781Z,8.30
2018-11-05T06:15:18.006Z,8.40
2018-11-05T06:17:46.896Z,8.40
2018-11-05T06:20:18.670Z,8.40
2018-11-05T06:22:47.930Z,8.40
2018-11-05T06:25:18.236Z,8.40
2018-11-05T06:27:46.732Z,8.40
2018-11-05T06:30:17.540Z,8.40
2018-11-05T06:32:46.962Z,8.40
2018-11-05T06:35:15.422Z,8.50
2018-11-05T06:37:43.976Z,9.40
2018-11-05T06:40:14.646Z,9.30
2018-11-05T06:42:43.691Z,9.20
2018-11-05T06:45:13.840Z,9.20
2018-11-05T06:47:45.665Z,9.20
2018-11-05T06:50:17.352Z,9.10
2018-11-05T06:52:46.318Z,9.10
2018-11-05T06:55:15.508Z,9.20
2018-11-05T06:57:44.907Z,9.20
2018-11-05T07:00:16.846Z,9.20
2018-11-05T07:02:46.880Z,9.30
2018-11-05T07:05:15.650Z,9.40
2018-11-05T07:07:44.186Z,9.50
2018-11-05T07:10:13.772Z,9.70
2018-11-05T07:12:42.762Z,9.80
2018-11-05T07:15:12.575Z,10.10
2018-11-05T07:17:41.350Z,10.20
2018-11-05T07:20:12.156Z,10.30
2018-11-05T07:22:40.636Z,10.50
2018-11-05T07:25:10.692Z,10.60
2018-11-05T07:27:39.256Z,10.70
2018-11-05T07:30:10.221Z,10.90
2018-11-05T07:32:38.729Z,11.00
2018-11-05T07:35:08.519Z,11.10
2018-11-05T07:37:36.973Z,11.30
2018-11-05T07:40:06.811Z,11.40
2018-11-05T07:42:35.239Z,11.50
2018-11-05T07:45:04.032Z,11.50
2018-11-05T07:47:32.465Z,12.00
2018-11-05T07:50:00.940Z,13.20
2018-11-05T07:52:29.354Z,14.70
2018-11-05T07:54:58.115Z,15.40
2018-11-05T07:57:26.606Z,15.60
2018-11-05T07:59:55.068Z,15.90
2018-11-05T08:02:23.487Z,15.70
2018-11-05T08:04:51.967Z,15.40
2018-11-05T08:07:20.457Z,15.00
2018-11-05T08:09:48.947Z,15.00
2018-11-05T08:12:17.407Z,15.40
2018-11-05T08:14:45.862Z,16.10
2018-11-05T08:17:14.299Z,16.40
2018-11-05T08:19:42.751Z,16.70
2018-11-05T08:22:11.182Z,16.30
2018-11-05T08:24:39.595Z,16.00
2018-11-05T08:27:08.129Z,15.40
2018-11-05T08:29:36.695Z,15.10
2018-11-05T08:32:05.351Z,14.90
2018-11-05T08:34:33.812Z,15.00
2018-11-05T08:37:02.306Z,15.40
2018-11-05T08:39:30.759Z,15.80
2018-11-05T08:41:59.230Z,15.70
2018-11-05T08:44:27.688Z,15.50
2018-11-05T08:46:56.246Z,15.10
2018-11-05T08:49:24.650Z,14.90
2018-11-05T08:51:53.164Z,14.60
2018-11-05T08:54:21.545Z,14.40
2018-11-05T08:56:50.005Z,14.50
2018-11-05T08:59:18.491Z,14.60
2018-11-05T09:01:46.956Z,14.90
2018-11-05T09:04:15.462Z,15.10
2018-11-05T09:06:43.926Z,15.20
2018-11-05T09:09:12.601Z,15.10
2018-11-05T09:11:41.108Z,15.00
2018-11-05T09:14:09.556Z,14.90
2018-11-05T09:16:37.994Z,14.60
2018-11-05T09:19:06.486Z,14.40
2018-11-05T09:21:34.914Z,14.50
2018-11-05T09:24:03.382Z,14.30
2018-11-05T09:26:31.828Z,14.30
2018-11-05T09:29:00.404Z,14.40
2018-11-05T09:31:29.098Z,14.30
2018-11-05T09:33:57.553Z,14.30
2018-11-05T09:36:26.027Z,14.30
2018-11-05T09:38:54.512Z,14.40
2018-11-05T09:41:22.994Z,14.50
2018-11-05T09:43:51.551Z,14.90
2018-11-05T09:46:19.988Z,15.90
2018-11-05T09:48:48.433Z,17.10
2018-11-05T09:51:16.878Z,17.80
2018-11-05T09:53:45.307Z,18.00
2018-11-05T09:56:13.741Z,18.00
2018-11-05T09:58:42.201Z,17.90
2018-11-05T10:01:10.677Z,18.10
2018-11-05T10:03:44.717Z,18.20
2018-11-05T10:06:13.140Z,18.20
2018-11-05T10:08:41.582Z,18.30
2018-11-05T10:11:10.047Z,18.30
2018-11-05T10:13:38.714Z,18.00
2018-11-05T10:16:07.243Z,17.90
2018-11-05T10:18:35.700Z,17.80
2018-11-05T10:21:04.157Z,17.40
2018-11-05T10:23:32.687Z,17.10
2018-11-05T10:26:01.119Z,16.60
2018-11-05T10:28:29.567Z,16.20
2018-11-05T10:30:58.067Z,16.00
2018-11-05T10:33:26.565Z,16.10
2018-11-05T10:35:56.218Z,16.00
2018-11-05T10:38:24.811Z,16.00
2018-11-05T10:40:53.262Z,16.10
2018-11-05T10:43:21.730Z,16.80
2018-11-05T10:45:50.236Z,17.50
2018-11-05T10:48:18.682Z,18.00
2018-11-05T10:50:47.258Z,18.70
2018-11-05T10:58:09.943Z,20.00
2018-11-05T11:00:43.764Z,21.10
2018-11-05T11:03:15.843Z,21.50
2018-11-05T11:05:44.320Z,22.20
2018-11-05T11:08:12.834Z,22.40
2018-11-05T11:10:41.343Z,23.10
2018-11-05T11:13:09.785Z,23.70
2018-11-05T11:15:38.240Z,24.30
2018-11-05T11:18:07.899Z,24.50
2018-11-05T11:20:37.086Z,25.00
2018-11-05T11:23:08.784Z,25.00
2018-11-05T11:25:37.281Z,25.40
2018-11-05T11:28:06.917Z,25.50
2018-11-05T11:30:35.377Z,25.40
2018-11-05T11:33:11.137Z,25.00
2018-11-05T11:35:40.521Z,24.60
2018-11-05T11:38:08.979Z,24.60
2018-11-05T11:40:37.705Z,24.60
2018-11-05T11:43:06.763Z,24.20
2018-11-05T11:45:37.245Z,24.40
2018-11-05T11:48:06.962Z,25.20
2018-11-05T11:50:36.127Z,26.00
2018-11-05T11:53:04.923Z,26.40
2018-11-05T11:55:33.371Z,26.40
2018-11-05T11:58:01.824Z,26.50
2018-11-05T12:00:30.291Z,26.90
2018-11-05T12:02:58.749Z,26.90
2018-11-05T12:05:27.335Z,27.10
2018-11-05T12:07:55.857Z,27.50
2018-11-05T12:10:24.891Z,27.90
2018-11-05T12:12:53.707Z,27.50
2018-11-05T12:15:24.065Z,27.70
2018-11-05T12:17:53.638Z,27.40
2018-11-05T12:20:24.561Z,26.80
2018-11-05T12:22:53.873Z,26.10
2018-11-05T12:25:22.381Z,25.90
2018-11-05T12:27:51.183Z,26.10
2018-11-05T12:30:21.915Z,26.40
2018-11-05T12:32:51.275Z,26.80
2018-11-05T12:35:19.715Z,27.10
2018-11-05T12:37:49.462Z,26.70
2018-11-05T12:40:18.858Z,26.30
2018-11-05T12:42:48.367Z,25.90
2018-11-05T12:45:16.938Z,25.80
2018-11-05T12:47:45.434Z,25.90
2018-11-05T12:50:17.244Z,25.80
2018-11-05T12:52:46.539Z,25.60
2018-11-05T12:55:14.997Z,25.00
2018-11-05T12:57:43.469Z,24.20
2018-11-05T13:03:04.741Z,23.10
2018-11-05T13:05:33.219Z,22.80
2018-11-05T13:08:01.682Z,22.40
2018-11-05T13:10:30.110Z,21.90
2018-11-05T13:12:58.712Z,21.20
2018-11-05T13:15:27.225Z,20.50
2018-11-05T13:17:55.630Z,20.40
2018-11-05T13:20:24.574Z,20.40
2018-11-05T13:22:53.092Z,20.40
2018-11-05T13:25:21.642Z,20.10
2018-11-05T13:27:50.940Z,20.20
2018-11-05T13:30:19.492Z,20.10
2018-11-05T13:32:47.937Z,19.90
2018-11-05T13:35:17.722Z,19.70
2018-11-05T13:37:46.408Z,19.50
2018-11-05T13:40:16.929Z,19.20
2018-11-05T13:42:45.830Z,19.10
2018-11-05T13:45:14.840Z,19.00
2018-11-05T13:47:44.019Z,18.90
2018-11-05T13:50:12.588Z,18.80
2018-11-05T13:52:41.087Z,18.80
2018-11-05T13:55:11.763Z,18.90
2018-11-05T13:57:40.896Z,19.00
2018-11-05T14:00:11.340Z,19.00
2018-11-05T14:02:39.928Z,18.90
2018-11-05T14:05:09.120Z,18.90
2018-11-05T14:07:37.820Z,18.90
2018-11-05T14:10:12.250Z,18.90
2018-11-05T14:12:41.071Z,18.90
2018-11-05T14:15:10.324Z,18.90
2018-11-05T14:17:39.011Z,18.90
2018-11-05T14:20:08.405Z,18.90
2018-11-05T14:22:36.889Z,18.90
2018-11-05T14:25:06.192Z,18.90
2018-11-05T14:27:34.691Z,18.80
2018-11-05T14:30:03.699Z,18.70
2018-11-05T14:32:31.718Z,18.60
2018-11-05T14:35:00.143Z,18.60
2018-11-05T14:37:28.551Z,18.50
2018-11-05T14:39:56.979Z,18.50
2018-11-05T14:42:25.520Z,18.50
2018-11-05T14:44:53.991Z,18.50
2018-11-05T14:47:22.419Z,18.40
2018-11-05T14:49:50.866Z,18.40
2018-11-05T14:52:19.321Z,18.20
2018-11-05T14:54:47.790Z,18.10
2018-11-05T14:57:16.309Z,18.00
2018-11-05T14:59:44.737Z,17.90
2018-11-05T15:02:18.495Z,17.80
2018-11-05T15:04:46.971Z,17.70
2018-11-05T15:07:15.401Z,17.50
2018-11-05T15:09:43.828Z,17.40
2018-11-05T15:12:12.308Z,17.20
2018-11-05T15:14:40.748Z,17.10
2018-11-05T15:17:09.302Z,17.00
2018-11-05T15:19:38.216Z,16.80
2018-11-05T15:22:06.256Z,16.70
2018-11-05T15:24:34.703Z,16.60
2018-11-05T15:27:03.398Z,16.50
2018-11-05T15:29:31.814Z,16.40
2018-11-05T15:32:00.431Z,16.30
2018-11-05T15:34:28.906Z,16.50
2018-11-05T15:36:57.458Z,16.70
2018-11-05T15:39:25.982Z,16.70
2018-11-05T15:41:54.497Z,16.80
2018-11-05T15:44:22.981Z,16.80
2018-11-05T15:46:51.464Z,16.70
2018-11-05T15:49:20.067Z,16.60
2018-11-05T15:51:48.758Z,16.50
2018-11-05T15:54:17.155Z,16.40
2018-11-05T15:56:45.476Z,16.40
2018-11-05T15:59:13.970Z,16.30
2018-11-05T16:01:42.426Z,16.10
2018-11-05T16:04:10.874Z,16.00
2018-11-05T16:06:39.337Z,15.90
2018-11-05T16:09:08.974Z,15.80
2018-11-05T16:11:37.422Z,15.80
2018-11-05T16:14:06.452Z,15.70
2018-11-05T16:16:35.278Z,15.60
2018-11-05T16:19:03.784Z,15.50
2018-11-05T16:21:32.348Z,15.40
2018-11-05T16:24:00.768Z,15.30
2018-11-05T16:26:29.266Z,15.20
2018-11-05T16:28:57.826Z,15.00
2018-11-05T16:31:26.648Z,14.90
2018-11-05T16:33:55.166Z,14.60
2018-11-05T16:36:23.844Z,14.50
2018-11-05T16:38:52.328Z,14.40
2018-11-05T16:41:20.780Z,14.30
2018-11-05T16:43:49.245Z,14.20
2018-11-05T16:46:17.847Z,14.20
2018-11-05T16:48:46.410Z,14.10
2018-11-05T16:51:14.886Z,14.10
2018-11-05T16:53:43.391Z,14.00
2018-11-05T16:56:11.804Z,13.90
2018-11-05T16:58:40.283Z,13.80
2018-11-05T17:01:08.886Z,13.70
2018-11-05T17:03:37.231Z,13.60
2018-11-05T17:06:05.780Z,13.50
2018-11-05T17:08:34.257Z,13.30
2018-11-05T17:11:02.700Z,13.20
2018-11-05T17:13:31.386Z,13.10
2018-11-05T17:15:59.698Z,13.10
2018-11-05T17:18:28.250Z,13.00
2018-11-05T17:20:56.765Z,13.00
2018-11-05T17:23:25.412Z,13.00
2018-11-05T17:25:53.950Z,12.90
2018-11-05T17:28:22.413Z,12.80
2018-11-05T17:30:50.901Z,12.70
2018-11-05T17:33:19.377Z,12.60
2018-11-05T17:35:47.921Z,12.60
2018-11-05T17:38:16.416Z,12.60
2018-11-05T17:40:44.886Z,12.60
2018-11-05T17:43:13.379Z,12.60
2018-11-05T17:45:41.918Z,12.70
2018-11-05T17:48:10.444Z,12.70
2018-11-05T17:50:39.040Z,12.60
2018-11-05T17:53:07.519Z,12.60
2018-11-05T17:55:36.072Z,12.50
2018-11-05T17:58:04.716Z,12.40
2018-11-05T18:00:33.457Z,12.40
2018-11-05T18:03:02.282Z,12.30
2018-11-05T18:05:30.843Z,12.20
2018-11-05T18:07:59.437Z,12.20
2018-11-05T18:10:27.977Z,12.10
2018-11-05T18:12:57.047Z,12.00
2018-11-05T18:15:25.781Z,12.00
2018-11-05T18:17:54.573Z,11.90
2018-11-05T18:20:23.607Z,11.80
2018-11-05T18:22:52.864Z,11.80
2018-11-05T18:25:21.786Z,11.80
2018-11-05T18:27:50.633Z,11.90
2018-11-05T18:30:19.673Z,12.00
2018-11-05T18:32:48.796Z,12.00
2018-11-05T18:35:18.075Z,12.00
2018-11-05T18:37:48.799Z,12.00
2018-11-05T18:40:17.568Z,12.00
2018-11-05T18:42:47.972Z,11.90
2018-11-05T18:45:17.484Z,11.80
2018-11-05T18:47:46.320Z,11.80
2018-11-05T18:50:16.454Z,11.80
2018-11-05T18:52:45.937Z,11.80
2018-11-05T18:55:17.073Z,11.70
2018-11-05T18:57:46.241Z,11.70
2018-11-05T19:00:25.548Z,11.60
2018-11-05T19:02:55.765Z,11.50
2018-11-05T19:05:26.263Z,11.50
2018-11-05T19:07:56.329Z,11.50
2018-11-05T19:10:25.317Z,11.40
2018-11-05T19:12:54.680Z,11.40
2018-11-05T19:15:24.879Z,11.40
2018-11-05T19:17:54.621Z,11.30
2018-11-05T19:20:24.249Z,11.20
2018-11-05T19:22:55.059Z,11.10
2018-11-05T19:25:24.305Z,11.10
2018-11-05T19:27:53.797Z,11.00
2018-11-05T19:30:25.636Z,11.00
2018-11-05T19:32:55.646Z,11.00
2018-11-05T19:35:25.040Z,11.00
2018-11-05T19:37:55.296Z,10.90
2018-11-05T19:40:24.768Z,10.90
2018-11-05T19:42:53.875Z,10.80
2018-11-05T19:45:24.256Z,10.70
2018-11-05T19:47:53.934Z,10.60
2018-11-05T19:50:24.114Z,10.60
2018-11-05T19:52:55.312Z,10.50
2018-11-05T19:55:24.973Z,10.40
2018-11-05T19:57:54.707Z,10.30
2018-11-05T20:00:26.199Z,10.10
2018-11-05T20:02:57.352Z,10.10
2018-11-05T20:05:27.845Z,10.00
2018-11-05T20:08:00.111Z,10.00
2018-11-05T20:10:30.514Z,10.00
2018-11-05T20:13:00.818Z,10.00
2018-11-05T20:15:30.599Z,9.90
2018-11-05T20:18:00.857Z,9.80
2018-11-05T20:20:30.619Z,9.80
2018-11-05T20:23:00.578Z,9.70
2018-11-05T20:25:30.623Z,9.70
2018-11-05T20:28:00.031Z,9.70
2018-11-05T20:30:39.496Z,9.70
2018-11-05T20:33:12.414Z,9.70
2018-11-05T20:35:41.720Z,9.70
2018-11-05T20:40:38.527Z,9.70
2018-11-05T20:43:08.219Z,9.60
2018-11-05T20:45:38.254Z,9.60
2018-11-05T20:48:07.536Z,9.70
2018-11-05T20:50:38.056Z,9.70
2018-11-05T20:53:07.355Z,9.60
2018-11-05T20:55:37.468Z,9.60
2018-11-05T20:58:06.846Z,9.60
2018-11-05T21:00:37.302Z,9.40
2018-11-05T21:05:33.910Z,9.30
2018-11-05T21:08:03.270Z,9.30
2018-11-05T21:10:32.569Z,9.20
2018-11-05T21:13:01.830Z,9.20
2018-11-05T21:15:32.082Z,9.10
2018-11-05T21:18:01.493Z,9.00
2018-11-05T21:20:30.911Z,9.10
2018-11-05T21:23:00.275Z,9.10
2018-11-05T21:25:30.320Z,9.00
2018-11-05T21:28:00.428Z,9.00
2018-11-05T21:30:29.780Z,8.90
2018-11-05T21:32:59.697Z,8.90
2018-11-05T21:35:29.107Z,8.90
2018-11-05T21:37:58.282Z,8.90
2018-11-05T21:40:27.468Z,8.80
2018-11-05T21:42:57.215Z,8.80
2018-11-05T21:45:27.018Z,8.90
2018-11-05T21:47:56.081Z,8.70
2018-11-05T21:50:25.030Z,8.70
2018-11-05T21:52:55.024Z,8.60
2018-11-05T21:55:25.312Z,8.50
2018-11-05T21:57:54.537Z,8.40
2018-11-05T22:00:24.615Z,8.30
2018-11-05T22:02:58.594Z,8.30
2018-11-05T22:05:27.156Z,8.30
2018-11-05T22:07:55.749Z,8.30
2018-11-05T22:10:24.964Z,8.30
2018-11-05T22:12:53.411Z,8.30
2018-11-05T22:15:22.017Z,8.20
2018-11-05T22:17:50.459Z,8.30
2018-11-05T22:20:18.918Z,8.20
2018-11-05T22:22:47.498Z,8.10
2018-11-05T22:25:15.960Z,8.10
2018-11-05T22:27:44.495Z,8.10
2018-11-05T22:30:13.214Z,8.10
2018-11-05T22:32:41.637Z,8.10
2018-11-05T22:35:10.150Z,8.10
2018-11-05T22:37:38.645Z,8.10
2018-11-05T22:40:09.783Z,8.10
2018-11-05T22:42:38.261Z,8.00
2018-11-05T22:45:07.274Z,8.00
2018-11-05T22:47:35.964Z,8.00
2018-11-05T22:50:06.066Z,8.00
2018-11-05T22:52:34.559Z,8.00
2018-11-05T22:55:03.148Z,8.00
2018-11-05T22:57:31.632Z,8.00
2018-11-05T23:00:00.217Z,7.90
2018-11-05T23:02:28.639Z,7.90
2018-11-05T23:04:57.093Z,7.90
2018-11-05T23:07:25.536Z,7.90
2018-11-05T23:09:53.975Z,7.90
2018-11-05T23:12:22.426Z,8.00
2018-11-05T23:14:51.039Z,8.00
2018-11-05T23:17:19.460Z,8.00
2018-11-05T23:19:48.063Z,8.10
2018-11-05T23:22:16.494Z,8.10
2018-11-05T23:24:45.015Z,8.00
2018-11-05T23:27:13.489Z,7.90
2018-11-05T23:29:41.939Z,8.00
2018-11-05T23:32:10.352Z,7.90
2018-11-05T23:34:38.840Z,7.90
2018-11-05T23:37:07.272Z,7.90
2018-11-05T23:39:35.825Z,7.90
2018-11-05T23:42:04.267Z,7.80
2018-11-05T23:44:32.761Z,7.70
2018-11-05T23:47:01.205Z,7.70
2018-11-05T23:49:29.649Z,7.80
2018-11-05T23:51:58.243Z,7.80
2018-11-05T23:54:26.608Z,7.80
2018-11-05T23:56:55.051Z,7.70
2018-11-05T23:59:23.479Z,7.60
